Terminal Aerodrome Forecast
Issued by NWS Newport/Morehead City, NC

Home | Current Version | Previous Version | Graphics & Text | Print | Product List | Glossary Off
Versions: 1 2 3 4 5 6 7 8 9 10 11 12 13 14 15 16 17 18 19 20 21

000
FTUS42 KMHX 200200 AAB
TAFEWN
TAF AMD
KEWN 200212Z 2002/2024 02010G15KT 6SM -RA BR SCT010 OVC020
      TEMPO 2002/2004 4SM BR OVC007
     FM200400 03012G17KT 5SM BR VCSH OVC005
     FM201400 05015G20KT P6SM VCSH OVC010=

USA.gov is the U.S. government's official web portal to all federal, state and local government web resources and services.